sensor_id;sensor_type;location;lat;lon;timestamp;temperature;humidity
9971;DHT22;5026;51.494;11.974;2022-12-15T00:00:58;-5.20;99.90
9971;DHT22;5026;51.494;11.974;2022-12-15T00:06:27;-7.30;99.90
9971;DHT22;5026;51.494;11.974;2022-12-15T00:09:11;-7.30;99.90
9971;DHT22;5026;51.494;11.974;2022-12-15T00:11:55;-7.30;99.90
9971;DHT22;5026;51.494;11.974;2022-12-15T00:14:40;-7.40;99.90
9971;DHT22;5026;51.494;11.974;2022-12-15T00:17:25;-7.40;99.90
9971;DHT22;5026;51.494;11.974;2022-12-15T00:20:09;-7.40;99.90
9971;DHT22;5026;51.494;11.974;2022-12-15T00:25:38;-7.40;99.90
9971;DHT22;5026;51.494;11.974;2022-12-15T00:33:53;-7.40;99.90
9971;DHT22;5026;51.494;11.974;2022-12-15T00:36:37;-7.30;99.90
9971;DHT22;5026;51.494;11.974;2022-12-15T00:41:49;-7.30;99.90
9971;DHT22;5026;51.494;11.974;2022-12-15T00:46:43;-7.30;99.90
9971;DHT22;5026;51.494;11.974;2022-12-15T00:49:23;-7.30;99.90
9971;DHT22;5026;51.494;11.974;2022-12-15T00:52:08;-7.30;99.90
9971;DHT22;5026;51.494;11.974;2022-12-15T00:57:37;-7.30;99.90
9971;DHT22;5026;51.494;11.974;2022-12-15T01:00:22;-7.10;99.90
9971;DHT22;5026;51.494;11.974;2022-12-15T01:03:11;-7.10;99.90
9971;DHT22;5026;51.494;11.974;2022-12-15T01:05:57;-7.10;99.90
9971;DHT22;5026;51.494;11.974;2022-12-15T01:08:42;-6.40;99.90
9971;DHT22;5026;51.494;11.974;2022-12-15T01:11:26;-7.10;99.90
9971;DHT22;5026;51.494;11.974;2022-12-15T01:14:10;-7.10;99.90
9971;DHT22;5026;51.494;11.974;2022-12-15T01:19:40;-7.00;99.90
9971;DHT22;5026;51.494;11.974;2022-12-15T01:22:26;-7.00;99.90
9971;DHT22;5026;51.494;11.974;2022-12-15T01:24:52;-7.00;99.90
9971;DHT22;5026;51.494;11.974;2022-12-15T01:29:46;-7.00;99.90
9971;DHT22;5026;51.494;11.974;2022-12-15T01:39:36;-7.10;99.90
9971;DHT22;5026;51.494;11.974;2022-12-15T01:42:20;-7.10;99.90
9971;DHT22;5026;51.494;11.974;2022-12-15T01:44:50;-7.00;99.90
9971;DHT22;5026;51.494;11.974;2022-12-15T01:47:18;-7.10;99.90
9971;DHT22;5026;51.494;11.974;2022-12-15T01:52:15;-7.10;99.90
9971;DHT22;5026;51.494;11.974;2022-12-15T01:54:48;-7.10;99.90
9971;DHT22;5026;51.494;11.974;2022-12-15T01:57:19;-7.10;99.90
9971;DHT22;5026;51.494;11.974;2022-12-15T01:59:51;-7.10;99.90
9971;DHT22;5026;51.494;11.974;2022-12-15T02:02:22;-7.10;99.90
9971;DHT22;5026;51.494;11.974;2022-12-15T02:04:51;-7.10;99.90
9971;DHT22;5026;51.494;11.974;2022-12-15T02:07:21;-7.10;99.90
9971;DHT22;5026;51.494;11.974;2022-12-15T02:09:51;-7.10;99.90
9971;DHT22;5026;51.494;11.974;2022-12-15T02:12:25;-7.20;99.90
9971;DHT22;5026;51.494;11.974;2022-12-15T02:15:07;-7.20;99.90
9971;DHT22;5026;51.494;11.974;2022-12-15T02:17:40;-7.20;99.90
9971;DHT22;5026;51.494;11.974;2022-12-15T02:32:38;-7.20;99.90
9971;DHT22;5026;51.494;11.974;2022-12-15T02:35:13;-7.20;99.90
9971;DHT22;5026;51.494;11.974;2022-12-15T02:37:43;-7.30;99.90
9971;DHT22;5026;51.494;11.974;2022-12-15T02:42:42;-7.20;99.90
9971;DHT22;5026;51.494;11.974;2022-12-15T02:45:13;-7.20;99.90
9971;DHT22;5026;51.494;11.974;2022-12-15T02:47:47;-7.30;99.90
9971;DHT22;5026;51.494;11.974;2022-12-15T02:50:35;-7.20;99.90
9971;DHT22;5026;51.494;11.974;2022-12-15T02:53:14;-7.20;99.90
9971;DHT22;5026;51.494;11.974;2022-12-15T02:55:49;-7.20;99.90
9971;DHT22;5026;51.494;11.974;2022-12-15T02:58:24;-7.20;99.90
9971;DHT22;5026;51.494;11.974;2022-12-15T03:01:00;-7.20;99.90
9971;DHT22;5026;51.494;11.974;2022-12-15T03:03:31;-7.20;99.90
9971;DHT22;5026;51.494;11.974;2022-12-15T03:08:27;-7.20;99.90
9971;DHT22;5026;51.494;11.974;2022-12-15T03:10:56;-7.10;99.90
9971;DHT22;5026;51.494;11.974;2022-12-15T03:13:23;-7.10;99.90
9971;DHT22;5026;51.494;11.974;2022-12-15T03:15:50;-7.10;99.90
9971;DHT22;5026;51.494;11.974;2022-12-15T03:18:19;-7.10;99.90
9971;DHT22;5026;51.494;11.974;2022-12-15T03:20:47;-7.10;99.90
9971;DHT22;5026;51.494;11.974;2022-12-15T03:25:43;-7.10;99.90
9971;DHT22;5026;51.494;11.974;2022-12-15T03:38:01;-7.10;99.90
9971;DHT22;5026;51.494;11.974;2022-12-15T03:45:24;-7.10;99.90
9971;DHT22;5026;51.494;11.974;2022-12-15T03:47:52;-7.10;99.90
9971;DHT22;5026;51.494;11.974;2022-12-15T03:50:21;-7.10;99.90
9971;DHT22;5026;51.494;11.974;2022-12-15T03:55:19;-7.20;99.90
9971;DHT22;5026;51.494;11.974;2022-12-15T04:00:14;-7.20;99.90
9971;DHT22;5026;51.494;11.974;2022-12-15T04:05:12;-7.20;99.90
9971;DHT22;5026;51.494;11.974;2022-12-15T04:10:07;-7.10;99.90
9971;DHT22;5026;51.494;11.974;2022-12-15T04:12:35;-7.10;99.90
9971;DHT22;5026;51.494;11.974;2022-12-15T04:15:06;-7.10;99.90
9971;DHT22;5026;51.494;11.974;2022-12-15T04:17:33;-7.20;99.90
9971;DHT22;5026;51.494;11.974;2022-12-15T04:20:00;-7.10;99.90
9971;DHT22;5026;51.494;11.974;2022-12-15T04:22:36;-7.20;99.90
9971;DHT22;5026;51.494;11.974;2022-12-15T04:25:04;-7.20;99.90
9971;DHT22;5026;51.494;11.974;2022-12-15T04:27:50;-6.30;99.90
9971;DHT22;5026;51.494;11.974;2022-12-15T04:33:20;-7.30;99.90
9971;DHT22;5026;51.494;11.974;2022-12-15T04:36:06;-7.40;99.90
9971;DHT22;5026;51.494;11.974;2022-12-15T04:41:36;-7.30;99.90
9971;DHT22;5026;51.494;11.974;2022-12-15T04:44:21;-7.30;99.90
9971;DHT22;5026;51.494;11.974;2022-12-15T04:47:06;-7.30;99.90
9971;DHT22;5026;51.494;11.974;2022-12-15T04:49:50;-7.30;99.90
9971;DHT22;5026;51.494;11.974;2022-12-15T04:52:34;-7.30;99.90
9971;DHT22;5026;51.494;11.974;2022-12-15T04:55:18;-7.40;99.90
9971;DHT22;5026;51.494;11.974;2022-12-15T04:58:06;-7.40;99.90
9971;DHT22;5026;51.494;11.974;2022-12-15T05:00:52;-7.40;99.90
9971;DHT22;5026;51.494;11.974;2022-12-15T05:09:07;-7.40;99.90
9971;DHT22;5026;51.494;11.974;2022-12-15T05:11:51;-7.40;99.90
9971;DHT22;5026;51.494;11.974;2022-12-15T05:14:35;-7.30;99.90
9971;DHT22;5026;51.494;11.974;2022-12-15T05:17:21;-7.30;99.90
9971;DHT22;5026;51.494;11.974;2022-12-15T05:20:06;-7.30;99.90
9971;DHT22;5026;51.494;11.974;2022-12-15T05:22:54;-7.30;99.90
9971;DHT22;5026;51.494;11.974;2022-12-15T05:25:38;-7.40;99.90
9971;DHT22;5026;51.494;11.974;2022-12-15T05:28:23;-7.30;99.90
9971;DHT22;5026;51.494;11.974;2022-12-15T05:31:08;-7.40;99.90
9971;DHT22;5026;51.494;11.974;2022-12-15T05:33:54;-7.40;99.90
9971;DHT22;5026;51.494;11.974;2022-12-15T05:36:22;-7.40;99.90
9971;DHT22;5026;51.494;11.974;2022-12-15T05:38:49;-7.40;99.90
9971;DHT22;5026;51.494;11.974;2022-12-15T05:41:16;-7.40;99.90
9971;DHT22;5026;51.494;11.974;2022-12-15T05:46:11;-7.40;99.90
9971;DHT22;5026;51.494;11.974;2022-12-15T05:48:39;-7.50;99.90
9971;DHT22;5026;51.494;11.974;2022-12-15T05:51:08;-7.50;99.90
9971;DHT22;5026;51.494;11.974;2022-12-15T05:53:37;-7.50;99.90
9971;DHT22;5026;51.494;11.974;2022-12-15T05:56:06;-7.50;99.90
9971;DHT22;5026;51.494;11.974;2022-12-15T06:01:05;-7.50;99.90
9971;DHT22;5026;51.494;11.974;2022-12-15T06:06:00;-7.50;99.90
9971;DHT22;5026;51.494;11.974;2022-12-15T06:08:31;-7.50;99.90
9971;DHT22;5026;51.494;11.974;2022-12-15T06:10:58;-7.50;99.90
9971;DHT22;5026;51.494;11.974;2022-12-15T06:13:26;-7.50;99.90
9971;DHT22;5026;51.494;11.974;2022-12-15T06:15:58;-7.50;99.90
9971;DHT22;5026;51.494;11.974;2022-12-15T06:18:27;-7.50;99.90
9971;DHT22;5026;51.494;11.974;2022-12-15T06:20:59;-7.40;99.90
9971;DHT22;5026;51.494;11.974;2022-12-15T06:23:27;-7.30;99.90
9971;DHT22;5026;51.494;11.974;2022-12-15T06:25:56;-7.30;99.90
9971;DHT22;5026;51.494;11.974;2022-12-15T06:28:23;-7.30;99.90
9971;DHT22;5026;51.494;11.974;2022-12-15T06:30:51;-7.30;99.90
9971;DHT22;5026;51.494;11.974;2022-12-15T06:33:19;-7.30;99.90
9971;DHT22;5026;51.494;11.974;2022-12-15T06:43:13;-7.30;99.90
9971;DHT22;5026;51.494;11.974;2022-12-15T06:45:46;-7.40;99.90
9971;DHT22;5026;51.494;11.974;2022-12-15T06:48:13;-7.30;99.90
9971;DHT22;5026;51.494;11.974;2022-12-15T06:53:07;-7.30;99.90
9971;DHT22;5026;51.494;11.974;2022-12-15T06:58:02;-7.20;99.90
9971;DHT22;5026;51.494;11.974;2022-12-15T07:00:32;-7.20;99.90
9971;DHT22;5026;51.494;11.974;2022-12-15T07:03:01;-7.20;99.90
9971;DHT22;5026;51.494;11.974;2022-12-15T07:05:28;-7.20;99.90
9971;DHT22;5026;51.494;11.974;2022-12-15T07:10:22;-7.20;99.90
9971;DHT22;5026;51.494;11.974;2022-12-15T07:15:16;-7.20;99.90
9971;DHT22;5026;51.494;11.974;2022-12-15T07:17:44;-7.20;99.90
9971;DHT22;5026;51.494;11.974;2022-12-15T07:20:11;-7.10;99.90
9971;DHT22;5026;51.494;11.974;2022-12-15T07:22:39;-7.10;99.90
9971;DHT22;5026;51.494;11.974;2022-12-15T07:25:07;-7.10;99.90
9971;DHT22;5026;51.494;11.974;2022-12-15T07:27:34;-7.10;99.90
9971;DHT22;5026;51.494;11.974;2022-12-15T07:32:28;-7.00;99.90
9971;DHT22;5026;51.494;11.974;2022-12-15T07:34:56;-7.00;99.90
9971;DHT22;5026;51.494;11.974;2022-12-15T07:37:24;-7.00;99.90
9971;DHT22;5026;51.494;11.974;2022-12-15T07:52:09;-6.70;99.90
9971;DHT22;5026;51.494;11.974;2022-12-15T07:59:32;-6.60;99.90
9971;DHT22;5026;51.494;11.974;2022-12-15T08:04:28;-6.60;99.90
9971;DHT22;5026;51.494;11.974;2022-12-15T08:06:55;-6.50;99.90
9971;DHT22;5026;51.494;11.974;2022-12-15T08:09:24;-6.60;99.90
9971;DHT22;5026;51.494;11.974;2022-12-15T08:14:18;-6.30;99.90
9971;DHT22;5026;51.494;11.974;2022-12-15T08:19:13;-6.10;99.90
9971;DHT22;5026;51.494;11.974;2022-12-15T08:21:44;-5.90;99.90
9971;DHT22;5026;51.494;11.974;2022-12-15T08:24:12;-5.70;99.90
9971;DHT22;5026;51.494;11.974;2022-12-15T08:26:42;-5.30;99.90
9971;DHT22;5026;51.494;11.974;2022-12-15T08:29:11;-4.70;99.90
9971;DHT22;5026;51.494;11.974;2022-12-15T08:34:06;-3.70;99.90
9971;DHT22;5026;51.494;11.974;2022-12-15T08:36:33;-3.10;99.90
9971;DHT22;5026;51.494;11.974;2022-12-15T08:39:00;-3.10;99.90
9971;DHT22;5026;51.494;11.974;2022-12-15T08:41:28;-2.60;99.90
9971;DHT22;5026;51.494;11.974;2022-12-15T08:43:58;-2.70;99.50
9971;DHT22;5026;51.494;11.974;2022-12-15T08:46:26;-2.70;99.00
9971;DHT22;5026;51.494;11.974;2022-12-15T08:48:54;-2.90;98.70
9971;DHT22;5026;51.494;11.974;2022-12-15T08:51:22;-3.20;98.70
9971;DHT22;5026;51.494;11.974;2022-12-15T08:56:19;-3.60;98.90
9971;DHT22;5026;51.494;11.974;2022-12-15T08:58:48;-3.50;98.90
9971;DHT22;5026;51.494;11.974;2022-12-15T09:01:19;-3.30;99.20
9971;DHT22;5026;51.494;11.974;2022-12-15T09:03:47;-2.90;98.80
9971;DHT22;5026;51.494;11.974;2022-12-15T09:06:16;-2.70;98.50
9971;DHT22;5026;51.494;11.974;2022-12-15T09:08:43;-2.20;98.40
9971;DHT22;5026;51.494;11.974;2022-12-15T09:11:11;-2.00;98.30
9971;DHT22;5026;51.494;11.974;2022-12-15T09:13:38;-1.90;98.50
9971;DHT22;5026;51.494;11.974;2022-12-15T09:16:07;-1.70;98.50
9971;DHT22;5026;51.494;11.974;2022-12-15T09:18:40;-1.40;98.20
9971;DHT22;5026;51.494;11.974;2022-12-15T09:21:07;-1.20;98.00
9971;DHT22;5026;51.494;11.974;2022-12-15T09:23:35;-0.90;96.80
9971;DHT22;5026;51.494;11.974;2022-12-15T09:26:04;-0.90;96.90
9971;DHT22;5026;51.494;11.974;2022-12-15T09:28:32;-1.10;96.80
9971;DHT22;5026;51.494;11.974;2022-12-15T09:31:01;-1.20;96.80
9971;DHT22;5026;51.494;11.974;2022-12-15T09:33:29;-1.30;96.90
9971;DHT22;5026;51.494;11.974;2022-12-15T09:35:57;-1.30;97.10
9971;DHT22;5026;51.494;11.974;2022-12-15T09:38:25;-1.40;97.00
9971;DHT22;5026;51.494;11.974;2022-12-15T09:40:52;-1.20;96.50
9971;DHT22;5026;51.494;11.974;2022-12-15T09:43:21;-1.20;96.70
9971;DHT22;5026;51.494;11.974;2022-12-15T09:45:56;-1.30;96.50
9971;DHT22;5026;51.494;11.974;2022-12-15T09:48:24;-1.40;96.70
9971;DHT22;5026;51.494;11.974;2022-12-15T09:50:57;-1.60;96.90
9971;DHT22;5026;51.494;11.974;2022-12-15T09:53:25;-1.80;97.10
9971;DHT22;5026;51.494;11.974;2022-12-15T09:55:56;-2.00;97.30
9971;DHT22;5026;51.494;11.974;2022-12-15T09:58:37;-2.20;97.50
9971;DHT22;5026;51.494;11.974;2022-12-15T10:01:13;-1.90;97.50
9971;DHT22;5026;51.494;11.974;2022-12-15T10:03:49;-1.90;97.70
9971;DHT22;5026;51.494;11.974;2022-12-15T10:06:23;-2.00;97.80
9971;DHT22;5026;51.494;11.974;2022-12-15T10:08:54;-2.10;97.90
9971;DHT22;5026;51.494;11.974;2022-12-15T10:11:34;-2.10;98.00
9971;DHT22;5026;51.494;11.974;2022-12-15T10:14:10;-2.30;97.80
9971;DHT22;5026;51.494;11.974;2022-12-15T10:16:49;-2.30;97.90
9971;DHT22;5026;51.494;11.974;2022-12-15T10:19:25;-2.40;98.00
9971;DHT22;5026;51.494;11.974;2022-12-15T10:21:55;-2.50;98.10
9971;DHT22;5026;51.494;11.974;2022-12-15T10:24:23;-2.50;98.20
9971;DHT22;5026;51.494;11.974;2022-12-15T10:27:07;-2.50;98.30
9971;DHT22;5026;51.494;11.974;2022-12-15T10:29:43;-2.50;98.40
9971;DHT22;5026;51.494;11.974;2022-12-15T10:32:16;-2.50;98.40
9971;DHT22;5026;51.494;11.974;2022-12-15T10:37:16;-2.40;98.40
9971;DHT22;5026;51.494;11.974;2022-12-15T10:39:45;-2.50;98.40
9971;DHT22;5026;51.494;11.974;2022-12-15T10:42:15;-2.40;98.40
9971;DHT22;5026;51.494;11.974;2022-12-15T10:44:44;-2.40;98.50
9971;DHT22;5026;51.494;11.974;2022-12-15T10:47:18;-2.40;98.60
9971;DHT22;5026;51.494;11.974;2022-12-15T10:52:34;-2.30;98.80
9971;DHT22;5026;51.494;11.974;2022-12-15T10:55:27;-2.30;98.80
9971;DHT22;5026;51.494;11.974;2022-12-15T10:57:58;-2.20;98.90
9971;DHT22;5026;51.494;11.974;2022-12-15T11:00:27;-2.20;98.80
9971;DHT22;5026;51.494;11.974;2022-12-15T11:02:54;-2.10;98.70
9971;DHT22;5026;51.494;11.974;2022-12-15T11:05:21;-2.10;98.80
9971;DHT22;5026;51.494;11.974;2022-12-15T11:07:51;-2.10;98.80
9971;DHT22;5026;51.494;11.974;2022-12-15T11:10:20;-2.10;98.80
9971;DHT22;5026;51.494;11.974;2022-12-15T11:12:58;-2.10;98.80
9971;DHT22;5026;51.494;11.974;2022-12-15T11:15:43;-2.00;98.80
9971;DHT22;5026;51.494;11.974;2022-12-15T11:18:17;-2.00;98.90
9971;DHT22;5026;51.494;11.974;2022-12-15T11:20:51;-2.00;98.80
9971;DHT22;5026;51.494;11.974;2022-12-15T11:23:23;-2.00;98.80
9971;DHT22;5026;51.494;11.974;2022-12-15T11:25:56;-1.90;98.80
9971;DHT22;5026;51.494;11.974;2022-12-15T11:28:28;-1.90;98.80
9971;DHT22;5026;51.494;11.974;2022-12-15T11:31:04;-1.80;98.80
9971;DHT22;5026;51.494;11.974;2022-12-15T11:33:33;-1.80;98.70
9971;DHT22;5026;51.494;11.974;2022-12-15T11:36:08;-1.70;98.60
9971;DHT22;5026;51.494;11.974;2022-12-15T11:38:42;-1.70;98.70
9971;DHT22;5026;51.494;11.974;2022-12-15T11:41:24;-1.70;98.80
9971;DHT22;5026;51.494;11.974;2022-12-15T11:44:03;-1.70;98.70
9971;DHT22;5026;51.494;11.974;2022-12-15T11:46:40;-1.70;98.60
9971;DHT22;5026;51.494;11.974;2022-12-15T11:49:32;-1.60;98.70
9971;DHT22;5026;51.494;11.974;2022-12-15T11:52:10;-1.60;98.50
9971;DHT22;5026;51.494;11.974;2022-12-15T11:54:45;-1.60;98.50
9971;DHT22;5026;51.494;11.974;2022-12-15T11:57:26;-1.60;98.50
9971;DHT22;5026;51.494;11.974;2022-12-15T12:00:03;-1.50;98.30
9971;DHT22;5026;51.494;11.974;2022-12-15T12:02:50;-1.50;98.30
9971;DHT22;5026;51.494;11.974;2022-12-15T12:05:31;-1.50;98.30
9971;DHT22;5026;51.494;11.974;2022-12-15T12:08:10;-1.50;98.40
9971;DHT22;5026;51.494;11.974;2022-12-15T12:10:50;-1.50;98.50
9971;DHT22;5026;51.494;11.974;2022-12-15T12:13:25;-1.50;98.40
9971;DHT22;5026;51.494;11.974;2022-12-15T12:16:01;-1.50;98.50
9971;DHT22;5026;51.494;11.974;2022-12-15T12:18:33;-1.50;98.60
9971;DHT22;5026;51.494;11.974;2022-12-15T12:21:05;-1.40;98.40
9971;DHT22;5026;51.494;11.974;2022-12-15T12:23:37;-1.40;98.40
9971;DHT22;5026;51.494;11.974;2022-12-15T12:26:11;-1.40;98.40
9971;DHT22;5026;51.494;11.974;2022-12-15T12:28:44;-1.40;98.20
9971;DHT22;5026;51.494;11.974;2022-12-15T12:31:18;-1.40;98.10
9971;DHT22;5026;51.494;11.974;2022-12-15T12:33:48;-1.40;98.20
9971;DHT22;5026;51.494;11.974;2022-12-15T12:36:16;-1.40;98.20
9971;DHT22;5026;51.494;11.974;2022-12-15T12:38:46;-1.40;98.00
9971;DHT22;5026;51.494;11.974;2022-12-15T12:41:22;-1.40;98.00
9971;DHT22;5026;51.494;11.974;2022-12-15T12:43:53;-1.40;98.00
9971;DHT22;5026;51.494;11.974;2022-12-15T12:46:24;-1.50;98.00
9971;DHT22;5026;51.494;11.974;2022-12-15T12:48:55;-1.50;98.00
9971;DHT22;5026;51.494;11.974;2022-12-15T12:51:26;-1.50;98.00
9971;DHT22;5026;51.494;11.974;2022-12-15T12:53:55;-1.50;97.90
9971;DHT22;5026;51.494;11.974;2022-12-15T12:56:44;-1.50;97.90
9971;DHT22;5026;51.494;11.974;2022-12-15T12:59:33;-1.50;98.00
9971;DHT22;5026;51.494;11.974;2022-12-15T13:02:45;-1.50;98.20
9971;DHT22;5026;51.494;11.974;2022-12-15T13:05:28;-1.60;98.10
9971;DHT22;5026;51.494;11.974;2022-12-15T13:10:39;-1.50;98.20
9971;DHT22;5026;51.494;11.974;2022-12-15T13:13:35;-1.60;98.20
9971;DHT22;5026;51.494;11.974;2022-12-15T13:16:07;-1.60;98.20
9971;DHT22;5026;51.494;11.974;2022-12-15T13:18:59;-1.60;98.30
9971;DHT22;5026;51.494;11.974;2022-12-15T13:21:51;-1.70;98.30
9971;DHT22;5026;51.494;11.974;2022-12-15T13:24:25;-1.70;98.40
9971;DHT22;5026;51.494;11.974;2022-12-15T13:27:04;-1.70;98.40
9971;DHT22;5026;51.494;11.974;2022-12-15T13:29:32;-1.70;98.40
9971;DHT22;5026;51.494;11.974;2022-12-15T13:32:00;-1.80;98.50
9971;DHT22;5026;51.494;11.974;2022-12-15T13:34:27;-1.80;98.60
9971;DHT22;5026;51.494;11.974;2022-12-15T13:36:59;-1.80;98.70
9971;DHT22;5026;51.494;11.974;2022-12-15T13:39:56;-1.80;98.70
9971;DHT22;5026;51.494;11.974;2022-12-15T13:42:34;-1.80;98.70
9971;DHT22;5026;51.494;11.974;2022-12-15T13:45:14;-1.80;98.70
9971;DHT22;5026;51.494;11.974;2022-12-15T13:47:50;-1.90;98.70
9971;DHT22;5026;51.494;11.974;2022-12-15T13:50:33;-1.90;98.80
9971;DHT22;5026;51.494;11.974;2022-12-15T13:53:03;-1.90;98.90
9971;DHT22;5026;51.494;11.974;2022-12-15T13:55:37;-2.00;98.90
9971;DHT22;5026;51.494;11.974;2022-12-15T13:58:06;-2.00;98.80
9971;DHT22;5026;51.494;11.974;2022-12-15T14:00:47;-1.90;98.80
9971;DHT22;5026;51.494;11.974;2022-12-15T14:05:47;-2.00;98.80
9971;DHT22;5026;51.494;11.974;2022-12-15T14:08:16;-2.00;98.90
9971;DHT22;5026;51.494;11.974;2022-12-15T14:10:46;-2.10;98.90
9971;DHT22;5026;51.494;11.974;2022-12-15T14:13:18;-2.10;98.90
9971;DHT22;5026;51.494;11.974;2022-12-15T14:15:51;-2.10;98.90
9971;DHT22;5026;51.494;11.974;2022-12-15T14:18:24;-2.20;98.90
9971;DHT22;5026;51.494;11.974;2022-12-15T14:23:20;-2.30;99.10
9971;DHT22;5026;51.494;11.974;2022-12-15T14:25:53;-2.40;99.10
9971;DHT22;5026;51.494;11.974;2022-12-15T14:28:25;-2.40;99.20
9971;DHT22;5026;51.494;11.974;2022-12-15T14:30:57;-2.50;99.20
9971;DHT22;5026;51.494;11.974;2022-12-15T14:33:24;-2.50;99.30
9971;DHT22;5026;51.494;11.974;2022-12-15T14:35:53;-2.50;99.30
9971;DHT22;5026;51.494;11.974;2022-12-15T14:38:25;-2.50;99.40
9971;DHT22;5026;51.494;11.974;2022-12-15T14:40:55;-2.60;99.30
9971;DHT22;5026;51.494;11.974;2022-12-15T14:43:24;-2.70;99.40
9971;DHT22;5026;51.494;11.974;2022-12-15T14:46:03;-2.80;99.40
9971;DHT22;5026;51.494;11.974;2022-12-15T14:48:34;-2.90;99.40
9971;DHT22;5026;51.494;11.974;2022-12-15T14:51:02;-2.90;99.50
9971;DHT22;5026;51.494;11.974;2022-12-15T14:53:33;-3.00;99.60
9971;DHT22;5026;51.494;11.974;2022-12-15T14:56:21;-3.00;99.70
9971;DHT22;5026;51.494;11.974;2022-12-15T14:58:54;-3.00;99.80
9971;DHT22;5026;51.494;11.974;2022-12-15T15:01:25;-3.00;99.90
9971;DHT22;5026;51.494;11.974;2022-12-15T15:03:57;-2.90;99.80
9971;DHT22;5026;51.494;11.974;2022-12-15T15:06:37;-2.80;99.70
9971;DHT22;5026;51.494;11.974;2022-12-15T15:09:20;-2.90;99.70
9971;DHT22;5026;51.494;11.974;2022-12-15T15:11:51;-3.00;99.80
9971;DHT22;5026;51.494;11.974;2022-12-15T15:14:23;-3.10;99.80
9971;DHT22;5026;51.494;11.974;2022-12-15T15:17:15;-3.10;99.90
9971;DHT22;5026;51.494;11.974;2022-12-15T15:19:47;-3.10;99.90
9971;DHT22;5026;51.494;11.974;2022-12-15T15:22:25;-3.20;99.90
9971;DHT22;5026;51.494;11.974;2022-12-15T15:24:55;-3.30;99.90
9971;DHT22;5026;51.494;11.974;2022-12-15T15:27:34;-3.30;99.90
9971;DHT22;5026;51.494;11.974;2022-12-15T15:30:18;-3.30;99.90
9971;DHT22;5026;51.494;11.974;2022-12-15T15:32:52;-2.00;99.90
9971;DHT22;5026;51.494;11.974;2022-12-15T15:35:20;-3.40;99.90
9971;DHT22;5026;51.494;11.974;2022-12-15T15:37:47;-3.50;99.90
9971;DHT22;5026;51.494;11.974;2022-12-15T15:40:16;-3.50;99.90
9971;DHT22;5026;51.494;11.974;2022-12-15T15:42:44;-3.60;99.90
9971;DHT22;5026;51.494;11.974;2022-12-15T15:45:11;-3.70;99.90
9971;DHT22;5026;51.494;11.974;2022-12-15T15:47:40;-3.70;99.90
9971;DHT22;5026;51.494;11.974;2022-12-15T15:50:13;-3.70;99.90
9971;DHT22;5026;51.494;11.974;2022-12-15T15:52:41;-3.70;99.90
9971;DHT22;5026;51.494;11.974;2022-12-15T15:55:13;-3.70;99.90
9971;DHT22;5026;51.494;11.974;2022-12-15T15:57:40;-2.50;99.90
9971;DHT22;5026;51.494;11.974;2022-12-15T16:00:15;-3.90;99.90
9971;DHT22;5026;51.494;11.974;2022-12-15T16:02:42;-3.90;99.90
9971;DHT22;5026;51.494;11.974;2022-12-15T16:05:09;-3.90;99.90
9971;DHT22;5026;51.494;11.974;2022-12-15T16:07:38;-4.00;99.90
9971;DHT22;5026;51.494;11.974;2022-12-15T16:10:11;-4.00;99.90
9971;DHT22;5026;51.494;11.974;2022-12-15T16:12:41;-4.10;99.90
9971;DHT22;5026;51.494;11.974;2022-12-15T16:15:14;-4.00;99.90
9971;DHT22;5026;51.494;11.974;2022-12-15T16:17:41;-4.00;99.90
9971;DHT22;5026;51.494;11.974;2022-12-15T16:20:09;-4.70;99.90
9971;DHT22;5026;51.494;11.974;2022-12-15T16:22:38;-4.10;99.90
9971;DHT22;5026;51.494;11.974;2022-12-15T16:25:12;-4.10;99.90
9971;DHT22;5026;51.494;11.974;2022-12-15T16:27:40;-4.00;99.90
9971;DHT22;5026;51.494;11.974;2022-12-15T16:30:14;-4.00;99.90
9971;DHT22;5026;51.494;11.974;2022-12-15T16:32:41;-4.00;99.90
9971;DHT22;5026;51.494;11.974;2022-12-15T16:35:08;-4.00;99.90
9971;DHT22;5026;51.494;11.974;2022-12-15T16:37:35;-3.90;99.90
9971;DHT22;5026;51.494;11.974;2022-12-15T16:40:13;-3.70;99.90
9971;DHT22;5026;51.494;11.974;2022-12-15T16:42:40;-3.60;99.90
9971;DHT22;5026;51.494;11.974;2022-12-15T16:45:14;-3.30;99.90
9971;DHT22;5026;51.494;11.974;2022-12-15T16:47:42;-3.70;99.90
9971;DHT22;5026;51.494;11.974;2022-12-15T16:50:12;-3.80;99.90
9971;DHT22;5026;51.494;11.974;2022-12-15T16:52:40;-3.90;99.90
9971;DHT22;5026;51.494;11.974;2022-12-15T16:55:20;-3.70;99.90
9971;DHT22;5026;51.494;11.974;2022-12-15T16:57:48;-3.60;99.90
9971;DHT22;5026;51.494;11.974;2022-12-15T17:00:20;-3.70;99.90
9971;DHT22;5026;51.494;11.974;2022-12-15T17:02:47;-3.70;99.90
9971;DHT22;5026;51.494;11.974;2022-12-15T17:05:14;-3.70;99.90
9971;DHT22;5026;51.494;11.974;2022-12-15T17:07:42;-3.80;99.90
9971;DHT22;5026;51.494;11.974;2022-12-15T17:10:17;-3.80;99.90
9971;DHT22;5026;51.494;11.974;2022-12-15T17:12:45;-3.90;99.90
9971;DHT22;5026;51.494;11.974;2022-12-15T17:15:18;-3.90;99.90
9971;DHT22;5026;51.494;11.974;2022-12-15T17:17:45;-4.10;99.90
9971;DHT22;5026;51.494;11.974;2022-12-15T17:20:17;-4.10;99.90
9971;DHT22;5026;51.494;11.974;2022-12-15T17:22:46;-4.20;99.90
9971;DHT22;5026;51.494;11.974;2022-12-15T17:25:20;-4.20;99.90
9971;DHT22;5026;51.494;11.974;2022-12-15T17:27:50;-4.20;99.90
9971;DHT22;5026;51.494;11.974;2022-12-15T17:30:18;-4.30;99.90
9971;DHT22;5026;51.494;11.974;2022-12-15T17:32:45;-4.30;99.90
9971;DHT22;5026;51.494;11.974;2022-12-15T17:35:13;-4.30;99.90
9971;DHT22;5026;51.494;11.974;2022-12-15T17:37:40;-4.40;99.90
9971;DHT22;5026;51.494;11.974;2022-12-15T17:40:20;-4.40;99.90
9971;DHT22;5026;51.494;11.974;2022-12-15T17:42:49;-4.40;99.90
9971;DHT22;5026;51.494;11.974;2022-12-15T17:45:19;-4.40;99.90
9971;DHT22;5026;51.494;11.974;2022-12-15T17:47:46;-4.50;99.90
9971;DHT22;5026;51.494;11.974;2022-12-15T17:50:13;-4.50;99.90
9971;DHT22;5026;51.494;11.974;2022-12-15T17:52:42;-4.50;99.90
9971;DHT22;5026;51.494;11.974;2022-12-15T17:55:17;-4.60;99.90
9971;DHT22;5026;51.494;11.974;2022-12-15T17:57:45;-4.60;99.90
9971;DHT22;5026;51.494;11.974;2022-12-15T18:00:21;-4.60;99.90
9971;DHT22;5026;51.494;11.974;2022-12-15T18:02:50;-4.60;99.90
9971;DHT22;5026;51.494;11.974;2022-12-15T18:05:18;-4.60;99.90
9971;DHT22;5026;51.494;11.974;2022-12-15T18:07:48;-4.70;99.90
9971;DHT22;5026;51.494;11.974;2022-12-15T18:10:22;-4.80;99.90
9971;DHT22;5026;51.494;11.974;2022-12-15T18:12:51;-4.80;99.90
9971;DHT22;5026;51.494;11.974;2022-12-15T18:15:20;-4.90;99.90
9971;DHT22;5026;51.494;11.974;2022-12-15T18:17:48;-4.90;99.90
9971;DHT22;5026;51.494;11.974;2022-12-15T18:20:15;-4.90;99.90
9971;DHT22;5026;51.494;11.974;2022-12-15T18:22:43;-4.90;99.90
9971;DHT22;5026;51.494;11.974;2022-12-15T18:25:15;-4.90;99.90
9971;DHT22;5026;51.494;11.974;2022-12-15T18:27:42;-4.90;99.90
9971;DHT22;5026;51.494;11.974;2022-12-15T18:30:15;-5.00;99.90
9971;DHT22;5026;51.494;11.974;2022-12-15T18:32:44;-5.00;99.90
9971;DHT22;5026;51.494;11.974;2022-12-15T18:35:17;-5.00;99.90
9971;DHT22;5026;51.494;11.974;2022-12-15T18:37:45;-5.00;99.90
9971;DHT22;5026;51.494;11.974;2022-12-15T18:40:13;-5.00;99.90
9971;DHT22;5026;51.494;11.974;2022-12-15T18:42:41;-5.00;99.90
9971;DHT22;5026;51.494;11.974;2022-12-15T18:45:21;-4.80;99.90
9971;DHT22;5026;51.494;11.974;2022-12-15T18:47:49;-5.00;99.90
9971;DHT22;5026;51.494;11.974;2022-12-15T18:50:19;-5.00;99.90
9971;DHT22;5026;51.494;11.974;2022-12-15T18:52:48;-4.90;99.90
9971;DHT22;5026;51.494;11.974;2022-12-15T18:55:19;-4.90;99.90
9971;DHT22;5026;51.494;11.974;2022-12-15T18:57:48;-5.00;99.90
9971;DHT22;5026;51.494;11.974;2022-12-15T19:00:22;-5.00;99.90